createdAt,value
2022-09-23T00:02:07.279Z,9.31
2022-09-23T00:04:36.553Z,9.31
2022-09-23T00:07:04.457Z,9.26
2022-09-23T00:09:32.467Z,9.27
2022-09-23T00:12:00.658Z,9.24
2022-09-23T00:14:28.594Z,9.22
2022-09-23T00:16:56.430Z,9.17
2022-09-23T00:19:24.444Z,9.16
2022-09-23T00:21:56.663Z,9.16
2022-09-23T00:24:24.732Z,9.15
2022-09-23T00:26:52.613Z,9.13
2022-09-23T00:29:20.638Z,9.08
2022-09-23T00:31:50.584Z,9.09
2022-09-23T00:34:18.385Z,9.04
2022-09-23T00:36:46.249Z,9.05
2022-09-23T00:39:15.755Z,9.05
2022-09-23T00:41:43.731Z,9.02
2022-09-23T00:44:43.094Z,8.98
2022-09-23T00:47:15.864Z,8.93
2022-09-23T00:49:46.377Z,8.87
2022-09-23T00:52:21.244Z,8.88
2022-09-23T00:54:56.225Z,8.88
2022-09-23T00:57:25.569Z,8.87
2022-09-23T00:59:53.550Z,8.88
2022-09-23T01:02:22.074Z,8.85
2022-09-23T01:04:51.191Z,8.85
2022-09-23T01:07:19.570Z,8.85
2022-09-23T01:09:50.628Z,8.82
2022-09-23T01:12:41.514Z,8.80
2022-09-23T01:15:19.525Z,8.77
2022-09-23T01:17:57.416Z,8.81
2022-09-23T01:20:56.417Z,8.77
2022-09-23T01:23:47.903Z,8.79
2022-09-23T01:26:34.159Z,8.75
2022-09-23T01:29:17.684Z,8.77
2022-09-23T01:31:54.417Z,8.73
2022-09-23T01:34:27.345Z,8.65
2022-09-23T01:37:02.406Z,8.61
2022-09-23T01:39:36.532Z,8.61
2022-09-23T01:42:16.870Z,8.57
2022-09-23T01:44:52.213Z,8.54
2022-09-23T01:47:29.253Z,8.53
2022-09-23T01:50:01.883Z,8.51
2022-09-23T01:52:36.854Z,8.50
2022-09-23T01:55:11.281Z,8.46
2022-09-23T01:57:43.947Z,8.44
2022-09-23T02:00:15.743Z,8.40
2022-09-23T02:02:50.803Z,8.34
2022-09-23T02:05:23.300Z,8.34
2022-09-23T02:07:59.329Z,8.38
2022-09-23T02:10:33.580Z,8.42
2022-09-23T02:13:07.341Z,8.37
2022-09-23T02:15:40.839Z,8.31
2022-09-23T02:18:15.058Z,8.26
2022-09-23T02:20:44.250Z,8.22
2022-09-23T02:23:14.254Z,8.25
2022-09-23T02:25:55.320Z,8.24
2022-09-23T02:28:32.649Z,8.21
2022-09-23T02:31:11.767Z,8.18
2022-09-23T02:33:47.588Z,8.19
2022-09-23T02:36:26.901Z,8.17
2022-09-23T02:38:58.921Z,8.16
2022-09-23T02:41:34.640Z,8.12
2022-09-23T02:44:07.345Z,8.12
2022-09-23T02:46:36.208Z,8.11
2022-09-23T02:49:11.074Z,8.04
2022-09-23T02:51:40.115Z,8.05
2022-09-23T02:54:14.556Z,8.09
2022-09-23T02:56:42.783Z,8.05
2022-09-23T02:59:11.966Z,7.98
2022-09-23T03:01:49.296Z,7.97
2022-09-23T03:04:27.947Z,7.97
2022-09-23T03:07:07.107Z,7.97
2022-09-23T03:09:38.623Z,7.97
2022-09-23T03:12:16.554Z,7.97
2022-09-23T03:14:53.491Z,7.99
2022-09-23T03:17:25.166Z,8.00
2022-09-23T03:20:00.185Z,7.95
2022-09-23T03:22:33.056Z,7.92
2022-09-23T03:25:07.087Z,7.89
2022-09-23T03:27:37.697Z,7.84
2022-09-23T03:30:09.261Z,7.85
2022-09-23T03:32:42.756Z,7.84
2022-09-23T03:35:14.330Z,7.78
2022-09-23T03:37:49.127Z,7.74
2022-09-23T03:40:22.137Z,7.73
2022-09-23T03:42:50.086Z,7.67
2022-09-23T03:45:22.831Z,7.68
2022-09-23T03:47:50.828Z,7.70
2022-09-23T03:50:20.803Z,7.68
2022-09-23T03:52:50.456Z,7.67
2022-09-23T03:55:21.372Z,7.67
2022-09-23T03:57:49.183Z,7.67
2022-09-23T04:00:17.611Z,7.71
2022-09-23T04:02:45.797Z,7.73
2022-09-23T04:05:14.911Z,7.70
2022-09-23T04:07:44.125Z,7.69
2022-09-23T04:10:12.262Z,7.69
2022-09-23T04:12:40.212Z,7.72
2022-09-23T04:15:08.622Z,7.72
2022-09-23T04:17:37.808Z,7.77
2022-09-23T04:20:06.498Z,7.77
2022-09-23T04:22:35.019Z,7.70
2022-09-23T04:25:04.399Z,7.68
2022-09-23T04:27:37.798Z,7.69
2022-09-23T04:30:07.229Z,7.67
2022-09-23T04:32:35.165Z,7.71
2022-09-23T04:35:03.166Z,7.72
2022-09-23T04:37:31.360Z,7.71
2022-09-23T04:39:59.661Z,7.74
2022-09-23T04:42:30.797Z,7.76
2022-09-23T04:44:58.957Z,7.79
2022-09-23T04:47:27.073Z,7.78
2022-09-23T04:49:59.550Z,7.77
2022-09-23T04:52:28.145Z,7.72
2022-09-23T04:54:55.949Z,7.75
2022-09-23T04:57:24.505Z,7.71
2022-09-23T04:59:54.867Z,7.70
2022-09-23T05:02:22.746Z,7.70
2022-09-23T05:04:50.635Z,7.70
2022-09-23T05:07:19.043Z,7.73
2022-09-23T05:09:46.889Z,7.76
2022-09-23T05:12:14.735Z,7.80
2022-09-23T05:14:42.559Z,7.89
2022-09-23T05:17:11.797Z,7.86
2022-09-23T05:19:39.611Z,7.85
2022-09-23T05:22:09.518Z,7.85
2022-09-23T05:24:37.609Z,7.83
2022-09-23T05:27:07.026Z,7.92
2022-09-23T05:29:35.133Z,7.97
2022-09-23T05:32:03.173Z,7.98
2022-09-23T05:34:32.727Z,7.96
2022-09-23T05:37:00.570Z,8.03
2022-09-23T05:39:28.993Z,8.01
2022-09-23T05:41:56.955Z,8.11
2022-09-23T05:44:24.930Z,8.17
2022-09-23T05:46:52.930Z,8.23
2022-09-23T05:49:29.552Z,8.27
2022-09-23T05:52:07.073Z,8.33
2022-09-23T05:54:34.814Z,8.33
2022-09-23T05:57:04.976Z,8.36
2022-09-23T05:59:35.285Z,8.45
2022-09-23T06:02:03.251Z,8.54
2022-09-23T06:04:31.067Z,8.60
2022-09-23T06:07:03.092Z,8.68
2022-09-23T06:09:36.327Z,8.76
2022-09-23T06:12:05.174Z,8.88
2022-09-23T06:14:33.008Z,8.97
2022-09-23T06:17:00.906Z,9.09
2022-09-23T06:19:28.621Z,9.17
2022-09-23T06:21:56.507Z,9.27
2022-09-23T06:24:30.179Z,9.36
2022-09-23T06:27:02.867Z,9.46
2022-09-23T06:29:33.902Z,9.49
2022-09-23T06:32:02.158Z,9.56
2022-09-23T06:34:31.784Z,9.64
2022-09-23T06:37:11.004Z,9.76
2022-09-23T06:39:44.889Z,9.85
2022-09-23T06:42:16.007Z,9.95
2022-09-23T06:44:44.057Z,10.01
2022-09-23T06:47:11.821Z,10.06
2022-09-23T06:49:39.792Z,10.08
2022-09-23T06:52:07.608Z,10.14
2022-09-23T06:54:35.745Z,10.20
2022-09-23T06:57:03.514Z,10.29
2022-09-23T06:59:33.228Z,10.34
2022-09-23T07:02:03.339Z,10.40
2022-09-23T07:04:31.381Z,10.45
2022-09-23T07:06:59.261Z,10.50
2022-09-23T07:09:27.770Z,10.58
2022-09-23T07:11:55.674Z,10.66
2022-09-23T07:14:23.622Z,10.71
2022-09-23T07:16:54.876Z,10.78
2022-09-23T07:19:22.896Z,10.84
2022-09-23T07:21:50.754Z,10.93
2022-09-23T07:24:18.889Z,10.97
2022-09-23T07:26:46.865Z,11.00
2022-09-23T07:29:15.453Z,11.07
2022-09-23T07:31:44.279Z,11.10
2022-09-23T07:34:13.536Z,11.18
2022-09-23T07:36:41.800Z,11.23
2022-09-23T07:39:11.871Z,11.30
2022-09-23T07:41:44.254Z,11.32
2022-09-23T07:44:14.554Z,11.41
2022-09-23T07:46:42.787Z,11.46
2022-09-23T07:49:10.680Z,11.55
2022-09-23T07:51:46.182Z,11.61
2022-09-23T07:54:16.307Z,11.65
2022-09-23T07:56:45.337Z,11.70
2022-09-23T07:59:18.760Z,11.76
2022-09-23T08:01:48.619Z,11.84
2022-09-23T08:04:19.282Z,11.89
2022-09-23T08:06:50.702Z,11.94
2022-09-23T08:09:19.948Z,12.00
2022-09-23T08:11:49.288Z,12.07
2022-09-23T08:14:17.923Z,12.11
2022-09-23T08:16:47.598Z,12.14
2022-09-23T08:19:16.259Z,12.24
2022-09-23T08:21:46.619Z,12.26
2022-09-23T08:24:17.804Z,12.31
2022-09-23T08:26:46.653Z,12.36
2022-09-23T08:29:15.695Z,12.41
2022-09-23T08:31:43.766Z,12.46
2022-09-23T08:34:12.254Z,12.53
2022-09-23T08:36:42.259Z,12.60
2022-09-23T08:39:14.974Z,12.72
2022-09-23T08:41:59.377Z,12.81
2022-09-23T08:44:33.490Z,12.90
2022-09-23T08:47:17.041Z,12.97
2022-09-23T08:49:54.276Z,13.08
2022-09-23T08:52:29.070Z,13.13
2022-09-23T08:54:57.056Z,13.23
2022-09-23T08:57:39.948Z,13.37
2022-09-23T09:00:15.358Z,13.48
2022-09-23T09:02:46.026Z,13.64
2022-09-23T09:05:18.591Z,13.92
2022-09-23T09:07:47.053Z,13.98
2022-09-23T09:10:20.509Z,14.03
2022-09-23T09:12:52.277Z,14.12
2022-09-23T09:15:26.540Z,14.20
2022-09-23T09:18:04.120Z,14.31
2022-09-23T09:20:40.774Z,14.42
2022-09-23T09:23:22.417Z,14.52
2022-09-23T09:25:52.256Z,14.60
2022-09-23T09:28:30.837Z,14.74
2022-09-23T09:31:02.532Z,14.87
2022-09-23T09:33:37.882Z,14.97
2022-09-23T09:36:15.950Z,15.07
2022-09-23T09:38:44.009Z,15.27
2022-09-23T09:41:16.969Z,15.29
2022-09-23T09:43:52.316Z,15.38
2022-09-23T09:46:34.988Z,15.40
2022-09-23T09:49:11.262Z,15.54
2022-09-23T09:51:41.092Z,15.69
2022-09-23T09:54:23.116Z,15.67
2022-09-23T09:56:52.488Z,15.69
2022-09-23T09:59:28.276Z,15.65
2022-09-23T10:02:14.691Z,15.79
2022-09-23T10:04:45.294Z,15.81
2022-09-23T10:07:15.604Z,15.81
2022-09-23T10:09:50.033Z,15.86
2022-09-23T10:12:20.281Z,15.94
2022-09-23T10:14:51.553Z,16.06
2022-09-23T10:17:23.052Z,16.11
2022-09-23T10:20:00.227Z,16.16
2022-09-23T10:22:32.813Z,16.21
2022-09-23T10:25:05.716Z,16.22
2022-09-23T10:27:35.864Z,16.34
2022-09-23T10:30:08.258Z,16.37
2022-09-23T10:32:38.626Z,16.40
2022-09-23T10:35:14.979Z,16.43
2022-09-23T10:37:46.016Z,16.53
2022-09-23T10:40:35.549Z,16.60
2022-09-23T10:43:38.794Z,16.71
2022-09-23T10:46:31.652Z,16.78
2022-09-23T10:49:24.299Z,16.97
2022-09-23T10:52:04.457Z,17.02
2022-09-23T10:54:43.755Z,17.11
2022-09-23T10:57:40.612Z,17.20
2022-09-23T11:00:36.157Z,17.38
2022-09-23T11:03:35.943Z,17.48
2022-09-23T11:06:19.141Z,17.59
2022-09-23T11:09:05.952Z,17.76
2022-09-23T11:11:44.685Z,17.66
2022-09-23T11:14:32.635Z,17.69
2022-09-23T11:17:20.837Z,17.76
2022-09-23T11:20:05.863Z,17.84
2022-09-23T11:22:47.241Z,17.90
2022-09-23T11:25:30.258Z,18.03
2022-09-23T11:28:21.660Z,18.10
2022-09-23T11:31:00.906Z,18.20
2022-09-23T11:33:42.328Z,18.27
2022-09-23T11:36:24.014Z,18.35
2022-09-23T11:38:54.827Z,18.49
2022-09-23T11:41:26.921Z,18.64
2022-09-23T11:44:04.239Z,18.74
2022-09-23T11:46:37.299Z,18.88
2022-09-23T11:49:10.735Z,18.92
2022-09-23T11:51:47.456Z,19.07
2022-09-23T11:54:21.087Z,19.20
2022-09-23T11:56:54.817Z,19.32
2022-09-23T11:59:40.846Z,19.42
2022-09-23T12:02:22.197Z,19.53
2022-09-23T12:05:01.316Z,19.64
2022-09-23T12:07:41.847Z,19.82
2022-09-23T12:10:12.454Z,20.02
2022-09-23T12:12:47.995Z,20.16
2022-09-23T12:15:27.870Z,20.34
2022-09-23T12:18:23.038Z,20.56
2022-09-23T12:21:18.285Z,20.69
2022-09-23T12:24:23.026Z,20.69
2022-09-23T12:26:54.130Z,20.75
2022-09-23T12:29:22.432Z,20.69
2022-09-23T12:31:50.426Z,20.65
2022-09-23T12:34:25.999Z,20.65
2022-09-23T12:37:03.462Z,20.70
2022-09-23T12:39:37.304Z,20.72
2022-09-23T12:42:08.202Z,20.82
2022-09-23T12:44:40.472Z,20.94
2022-09-23T12:47:46.821Z,21.08
2022-09-23T12:50:58.368Z,21.18
2022-09-23T12:53:58.007Z,21.21
2022-09-23T12:56:30.991Z,21.24
2022-09-23T12:59:23.228Z,21.29
2022-09-23T13:01:51.251Z,21.26
2022-09-23T13:04:50.935Z,21.28
2022-09-23T13:07:23.849Z,21.41
2022-09-23T13:09:54.023Z,21.51
2022-09-23T13:12:28.827Z,21.60
2022-09-23T13:15:00.705Z,21.62
2022-09-23T13:17:34.504Z,21.79
2022-09-23T13:20:06.261Z,22.01
2022-09-23T13:23:06.905Z,22.15
2022-09-23T13:25:40.986Z,22.34
2022-09-23T13:28:26.218Z,22.54
2022-09-23T13:30:54.549Z,22.72
2022-09-23T13:33:30.235Z,22.84
2022-09-23T13:36:04.006Z,22.89
2022-09-23T13:38:34.011Z,22.68
2022-09-23T13:41:08.895Z,22.63
2022-09-23T13:43:42.543Z,22.67
2022-09-23T13:46:14.462Z,22.68
2022-09-23T13:48:45.721Z,22.68
2022-09-23T13:51:20.513Z,22.72
2022-09-23T13:53:54.538Z,22.87
2022-09-23T13:56:24.030Z,22.99
2022-09-23T13:58:53.333Z,23.11
2022-09-23T14:01:31.735Z,23.19
2022-09-23T14:04:00.106Z,23.24
2022-09-23T14:06:28.352Z,23.42
2022-09-23T14:08:57.993Z,23.43
2022-09-23T14:11:31.545Z,23.39
2022-09-23T14:14:07.582Z,23.32
2022-09-23T14:16:39.073Z,23.05
2022-09-23T14:19:08.018Z,22.98
2022-09-23T14:21:37.704Z,22.96
2022-09-23T14:24:17.208Z,22.90
2022-09-23T14:26:48.320Z,22.89
2022-09-23T14:29:20.125Z,22.91
2022-09-23T14:31:56.955Z,22.84
2022-09-23T14:34:46.422Z,22.75
2022-09-23T14:37:40.202Z,22.93
2022-09-23T14:40:14.695Z,22.82
2022-09-23T14:42:46.022Z,22.69
2022-09-23T14:45:19.263Z,22.59
2022-09-23T14:47:52.773Z,22.21
2022-09-23T14:50:39.803Z,22.11
2022-09-23T14:53:34.843Z,21.93
2022-09-23T14:56:17.710Z,21.92
2022-09-23T14:58:52.930Z,21.92
2022-09-23T15:01:37.329Z,22.01
2022-09-23T15:04:17.361Z,21.99
2022-09-23T15:06:53.392Z,22.10
2022-09-23T15:09:24.671Z,21.98
2022-09-23T15:11:54.931Z,21.90
2022-09-23T15:14:39.599Z,21.90
2022-09-23T15:17:21.484Z,21.97
2022-09-23T15:19:52.941Z,21.97
2022-09-23T15:22:23.873Z,21.97
2022-09-23T15:24:53.266Z,21.93
2022-09-23T15:27:28.801Z,21.77
2022-09-23T15:30:04.902Z,21.69
2022-09-23T15:32:34.226Z,21.72
2022-09-23T15:35:02.278Z,21.60
2022-09-23T15:37:35.498Z,21.37
2022-09-23T15:40:04.569Z,21.19
2022-09-23T15:42:32.551Z,21.12
2022-09-23T15:45:00.528Z,21.03
2022-09-23T15:47:28.359Z,20.96
2022-09-23T15:49:57.731Z,20.97
2022-09-23T15:52:26.005Z,20.83
2022-09-23T15:54:53.868Z,20.76
2022-09-23T15:57:22.064Z,20.68
2022-09-23T15:59:49.928Z,20.62
2022-09-23T16:02:23.681Z,20.52
2022-09-23T16:04:52.555Z,20.41
2022-09-23T16:07:21.865Z,20.41
2022-09-23T16:09:49.811Z,20.30
2022-09-23T16:12:17.645Z,20.23
2022-09-23T16:14:45.739Z,20.17
2022-09-23T16:17:14.852Z,20.07
2022-09-23T16:19:43.480Z,20.02
2022-09-23T16:22:15.428Z,20.03
2022-09-23T16:24:44.779Z,19.91
2022-09-23T16:27:20.658Z,19.80
2022-09-23T16:29:48.586Z,19.72
2022-09-23T16:32:21.471Z,19.68
2022-09-23T16:34:49.969Z,19.58
2022-09-23T16:37:20.938Z,19.49
2022-09-23T16:39:50.753Z,19.39
2022-09-23T16:42:18.602Z,19.31
2022-09-23T16:44:46.503Z,19.21
2022-09-23T16:47:14.360Z,19.09
2022-09-23T16:49:44.843Z,18.95
2022-09-23T16:52:16.774Z,18.84
2022-09-23T16:54:45.138Z,18.74
2022-09-23T16:57:14.206Z,18.63
2022-09-23T17:00:01.795Z,18.51
2022-09-23T17:02:47.143Z,18.36
2022-09-23T17:05:16.357Z,18.22
2022-09-23T17:07:44.267Z,18.10
2022-09-23T17:10:12.777Z,17.96
2022-09-23T17:12:43.548Z,17.83
2022-09-23T17:15:12.513Z,17.72
2022-09-23T17:17:40.365Z,17.57
2022-09-23T17:20:09.038Z,17.48
2022-09-23T17:22:36.825Z,17.40
2022-09-23T17:25:05.360Z,17.31
2022-09-23T17:27:33.306Z,17.26
2022-09-23T17:30:02.685Z,17.17
2022-09-23T17:32:30.630Z,17.08
2022-09-23T17:35:04.337Z,17.00
2022-09-23T17:37:33.103Z,16.89
2022-09-23T17:40:01.220Z,16.83
2022-09-23T17:42:29.393Z,16.79
2022-09-23T17:44:58.173Z,16.71
2022-09-23T17:47:27.616Z,16.64
2022-09-23T17:49:56.607Z,16.57
2022-09-23T17:52:24.534Z,16.48
2022-09-23T17:54:55.015Z,16.42
2022-09-23T17:57:23.122Z,16.34
2022-09-23T17:59:53.548Z,16.30
2022-09-23T18:02:22.490Z,16.25
2022-09-23T18:04:51.691Z,16.19
2022-09-23T18:07:19.568Z,16.15
2022-09-23T18:09:47.515Z,16.11
2022-09-23T18:12:16.128Z,16.06
2022-09-23T18:14:45.226Z,16.02
2022-09-23T18:17:13.450Z,15.97
2022-09-23T18:19:41.427Z,15.92
2022-09-23T18:22:10.864Z,15.89
2022-09-23T18:24:41.052Z,15.85
2022-09-23T18:27:09.607Z,15.79
2022-09-23T18:29:38.027Z,15.75
2022-09-23T18:32:08.221Z,15.70
2022-09-23T18:34:38.252Z,15.65
2022-09-23T18:37:15.265Z,15.59
2022-09-23T18:39:45.691Z,15.53
2022-09-23T18:42:13.609Z,15.48
2022-09-23T18:44:41.938Z,15.45
2022-09-23T18:47:30.288Z,15.44
2022-09-23T18:50:15.418Z,15.41
2022-09-23T18:52:43.443Z,15.38
2022-09-23T18:55:12.834Z,15.35
2022-09-23T18:57:41.113Z,15.30
2022-09-23T19:00:10.496Z,15.26
2022-09-23T19:02:38.468Z,15.19
2022-09-23T19:05:07.173Z,15.17
2022-09-23T19:07:35.356Z,15.15
2022-09-23T19:10:03.278Z,15.12
2022-09-23T19:12:32.552Z,15.09
2022-09-23T19:15:00.353Z,15.05
2022-09-23T19:17:29.994Z,15.00
2022-09-23T19:19:58.470Z,14.98
2022-09-23T19:22:26.494Z,14.92
2022-09-23T19:24:54.389Z,14.90
2022-09-23T19:27:23.395Z,14.85
2022-09-23T19:29:52.718Z,14.84
2022-09-23T19:32:21.081Z,14.80
2022-09-23T19:34:49.017Z,14.75
2022-09-23T19:37:16.773Z,14.71
2022-09-23T19:39:45.176Z,14.67
2022-09-23T19:42:12.952Z,14.64
2022-09-23T19:44:40.942Z,14.63
2022-09-23T19:47:15.376Z,14.61
2022-09-23T19:49:43.531Z,14.58
2022-09-23T19:52:11.393Z,14.55
2022-09-23T19:54:39.336Z,14.53
2022-09-23T19:57:07.228Z,14.48
2022-09-23T19:59:35.050Z,14.43
2022-09-23T20:02:02.938Z,14.38
2022-09-23T20:04:32.974Z,14.36
2022-09-23T20:07:01.012Z,14.35
2022-09-23T20:09:28.994Z,14.28
2022-09-23T20:11:57.195Z,14.22
2022-09-23T20:14:27.017Z,14.19
2022-09-23T20:16:54.877Z,14.15
2022-09-23T20:19:22.731Z,14.11
2022-09-23T20:22:11.998Z,14.07
2022-09-23T20:24:42.892Z,14.04
2022-09-23T20:27:09.980Z,13.97
2022-09-23T20:29:38.289Z,13.92
2022-09-23T20:32:06.207Z,13.85
2022-09-23T20:34:34.243Z,13.81
2022-09-23T20:37:05.233Z,13.80
2022-09-23T20:39:33.115Z,13.76
2022-09-23T20:42:02.614Z,13.72
2022-09-23T20:44:30.699Z,13.68
2022-09-23T20:46:58.585Z,13.69
2022-09-23T20:49:26.547Z,13.68
2022-09-23T20:51:54.365Z,13.66
2022-09-23T20:54:23.533Z,13.59
2022-09-23T20:56:51.358Z,13.56
2022-09-23T20:59:19.233Z,13.55
2022-09-23T21:01:47.463Z,13.53
2022-09-23T21:04:15.752Z,13.48
2022-09-23T21:06:43.650Z,13.47
2022-09-23T21:09:11.550Z,13.44
2022-09-23T21:11:40.693Z,13.45
2022-09-23T21:14:08.907Z,13.42
2022-09-23T21:16:37.148Z,13.41
2022-09-23T21:19:08.141Z,13.40
2022-09-23T21:21:36.164Z,13.40
2022-09-23T21:24:31.350Z,13.36
2022-09-23T21:26:53.748Z,13.35
2022-09-23T21:29:21.667Z,13.36
2022-09-23T21:31:49.808Z,13.31
2022-09-23T21:34:17.934Z,13.28
2022-09-23T21:36:47.884Z,13.24
2022-09-23T21:39:16.013Z,13.19
2022-09-23T21:41:43.768Z,13.11
2022-09-23T21:44:13.028Z,13.07
2022-09-23T21:46:40.933Z,13.04
2022-09-23T21:49:09.131Z,12.99
2022-09-23T21:51:40.528Z,12.96
2022-09-23T21:54:12.825Z,12.93
2022-09-23T21:56:40.880Z,12.92
2022-09-23T21:59:09.240Z,12.91
2022-09-23T22:01:40.100Z,12.89
2022-09-23T22:04:13.239Z,12.85
2022-09-23T22:06:41.641Z,12.82
2022-09-23T22:09:12.340Z,12.83
2022-09-23T22:11:58.626Z,12.80
2022-09-23T22:14:27.258Z,12.80
2022-09-23T22:16:59.060Z,12.76
2022-09-23T22:19:28.743Z,12.72
2022-09-23T22:21:56.736Z,12.72
2022-09-23T22:24:24.696Z,12.69
2022-09-23T22:26:52.591Z,12.69
2022-09-23T22:29:38.732Z,12.69
2022-09-23T22:32:29.712Z,12.68
2022-09-23T22:34:57.552Z,12.70
2022-09-23T22:37:27.401Z,12.72
2022-09-23T22:39:55.853Z,12.69
2022-09-23T22:42:24.023Z,12.68
2022-09-23T22:44:55.412Z,12.66
2022-09-23T22:47:24.855Z,12.66
2022-09-23T22:49:54.642Z,12.67
2022-09-23T22:52:24.247Z,12.68
2022-09-23T22:54:52.508Z,12.69
2022-09-23T22:57:20.825Z,12.67
2022-09-23T22:59:49.413Z,12.65
2022-09-23T23:02:18.244Z,12.63
2022-09-23T23:04:48.530Z,12.60
2022-09-23T23:07:21.666Z,12.61
2022-09-23T23:09:50.654Z,12.65
2022-09-23T23:12:19.989Z,12.65
2022-09-23T23:14:50.926Z,12.65
2022-09-23T23:17:19.040Z,12.64
2022-09-23T23:19:50.485Z,12.65
2022-09-23T23:22:18.538Z,12.69
2022-09-23T23:24:46.446Z,12.69
2022-09-23T23:27:14.368Z,12.65
2022-09-23T23:29:42.172Z,12.64
2022-09-23T23:32:10.079Z,12.65
2022-09-23T23:34:37.909Z,12.64
2022-09-23T23:37:07.127Z,12.65
2022-09-23T23:39:34.860Z,12.63
2022-09-23T23:42:04.090Z,12.58
2022-09-23T23:44:32.619Z,12.57
2022-09-23T23:47:01.247Z,12.58
2022-09-23T23:49:29.665Z,12.55
2022-09-23T23:51:57.846Z,12.54
2022-09-23T23:54:27.197Z,12.54
2022-09-23T23:56:55.247Z,12.53
2022-09-23T23:59:23.092Z,12.50
